createdAt,value
2018-06-20T07:32:54.665Z,55.86
2018-06-20T07:59:21.333Z,55.69
2018-06-20T08:00:30.032Z,55.00
2018-06-20T08:01:38.693Z,54.42
2018-06-20T08:02:47.424Z,53.82
2018-06-20T08:03:56.038Z,54.09
2018-06-20T08:05:06.571Z,53.58
2018-06-20T08:06:15.481Z,53.48
2018-06-20T09:55:33.013Z,54.59
2018-06-20T09:56:37.094Z,54.09
2018-06-20T09:57:41.563Z,53.34
2018-06-20T09:58:45.915Z,53.82
2018-06-20T09:59:55.581Z,53.49
2018-06-20T10:01:04.263Z,52.67
2018-06-20T10:02:13.474Z,52.48
2018-06-20T10:03:22.057Z,52.19
2018-06-20T10:04:31.485Z,52.90
2018-06-20T10:05:40.135Z,52.84
2018-06-20T10:06:50.275Z,51.95
2018-06-20T10:07:59.273Z,52.18
2018-06-20T10:09:07.842Z,52.98
2018-06-20T10:10:16.572Z,52.22
2018-06-20T10:11:25.304Z,52.70
2018-06-20T10:12:34.055Z,52.88
2018-06-20T10:13:43.192Z,52.18
2018-06-20T10:14:47.084Z,52.11
2018-06-20T10:15:51.132Z,52.32
2018-06-20T10:16:57.967Z,52.62
2018-06-20T10:18:02.809Z,52.53
2018-06-20T10:19:06.768Z,51.87
2018-06-20T10:20:14.857Z,51.83
2018-06-20T10:21:19.292Z,51.69
2018-06-20T10:22:24.618Z,51.75
2018-06-20T10:23:29.375Z,51.75
2018-06-20T10:24:34.424Z,51.80
2018-06-20T10:25:38.223Z,51.47
2018-06-20T10:26:42.491Z,51.45
2018-06-20T10:27:46.324Z,51.41
2018-06-20T10:28:50.171Z,51.28
2018-06-20T10:29:54.041Z,52.44
2018-06-20T10:30:57.911Z,51.34
2018-06-20T10:32:01.858Z,51.41
2018-06-20T10:33:06.855Z,51.40
2018-06-20T10:34:11.609Z,52.10
2018-06-20T10:35:15.410Z,51.38
2018-06-20T10:36:19.254Z,52.13
2018-06-20T10:37:24.133Z,52.46
2018-06-20T10:38:28.056Z,52.26
2018-06-20T10:39:32.332Z,51.62
2018-06-20T10:40:36.420Z,51.60
2018-06-20T10:41:42.460Z,51.97
2018-06-20T10:42:46.324Z,51.70
2018-06-20T10:43:50.890Z,52.15
2018-06-20T10:44:59.626Z,51.87
2018-06-20T10:46:09.655Z,51.68
2018-06-20T10:47:19.381Z,52.70
2018-06-20T10:48:23.254Z,51.43
2018-06-20T10:49:27.708Z,51.25
2018-06-20T10:50:33.455Z,51.74
2018-06-20T10:51:37.369Z,52.22
2018-06-20T10:52:41.676Z,51.42
2018-06-20T10:53:45.499Z,51.92
2018-06-20T10:54:50.244Z,51.18
2018-06-20T10:55:57.093Z,51.99
2018-06-20T10:57:06.352Z,52.24
2018-06-20T10:58:17.219Z,52.15
2018-06-20T10:59:27.359Z,52.21
2018-06-20T11:00:36.042Z,52.15
2018-06-20T11:03:48.205Z,52.14
2018-06-20T11:04:58.000Z,51.68
2018-06-20T11:06:07.394Z,51.39
2018-06-20T11:08:40.567Z,51.41
2018-06-20T11:09:49.916Z,52.09
2018-06-20T11:10:59.554Z,51.54
2018-06-20T11:12:08.362Z,51.54
2018-06-20T11:13:13.871Z,52.25
2018-06-20T11:14:17.713Z,51.60
2018-06-20T11:15:21.801Z,51.26
2018-06-20T11:16:26.784Z,51.71
2018-06-20T11:17:31.560Z,51.86
2018-06-20T11:18:39.112Z,52.32
2018-06-20T11:19:43.034Z,50.98
2018-06-20T11:20:51.718Z,51.36
2018-06-20T11:21:55.582Z,51.92
2018-06-20T11:23:00.946Z,51.88
2018-06-20T11:24:06.183Z,50.98
2018-06-20T11:25:10.490Z,50.75
2018-06-20T11:26:14.349Z,51.04
2018-06-20T11:27:18.252Z,50.94
2018-06-20T11:28:23.375Z,51.08
2018-06-20T11:29:28.640Z,51.99
2018-06-20T11:30:33.659Z,50.98
2018-06-20T11:31:38.137Z,51.73
2018-06-20T11:32:42.875Z,51.67
2018-06-20T11:33:46.819Z,51.54
2018-06-20T11:34:50.819Z,51.95
2018-06-20T11:35:55.082Z,50.81
2018-06-20T11:36:58.926Z,52.11
2018-06-20T11:38:03.725Z,51.52
2018-06-20T11:39:07.522Z,51.19
2018-06-20T11:40:13.068Z,51.52
2018-06-20T11:41:16.871Z,50.67
2018-06-20T11:42:21.241Z,51.71
2018-06-20T11:43:25.676Z,50.86
2018-06-20T11:44:29.486Z,51.96
2018-06-20T11:45:41.274Z,51.76
2018-06-20T11:46:50.020Z,51.03
2018-06-20T11:47:56.032Z,51.43
2018-06-20T11:49:03.510Z,51.55
2018-06-20T11:50:08.134Z,51.64
2018-06-20T11:51:12.761Z,51.39
2018-06-20T11:52:22.002Z,51.65
2018-06-20T11:53:26.400Z,50.76
2018-06-20T11:54:33.245Z,50.82
2018-06-20T11:55:43.365Z,51.49
2018-06-20T11:56:47.218Z,51.67
2018-06-20T11:57:51.944Z,50.94
2018-06-20T11:59:00.680Z,51.71
2018-06-20T12:00:10.215Z,51.48
2018-06-20T12:01:19.834Z,50.78
2018-06-20T12:02:29.190Z,51.51
2018-06-20T12:03:37.909Z,51.04
2018-06-20T12:04:46.688Z,51.68
2018-06-20T12:05:56.939Z,51.61
2018-06-20T12:07:05.640Z,51.63
2018-06-20T12:08:14.363Z,50.73
2018-06-20T12:09:23.598Z,51.74
2018-06-20T12:10:32.310Z,50.81
2018-06-20T12:11:41.042Z,51.04
2018-06-20T12:12:50.341Z,51.60
2018-06-20T12:13:59.179Z,50.79
2018-06-20T12:15:08.550Z,51.66
2018-06-20T12:16:25.218Z,51.34
2018-06-20T12:17:33.931Z,51.58
2018-06-20T12:18:45.171Z,51.55
2018-06-20T14:02:31.864Z,52.93
2018-06-20T14:03:35.915Z,52.57
2018-06-20T14:04:39.949Z,53.29
2018-06-20T14:05:44.961Z,53.08
2018-06-20T14:06:49.217Z,53.13
2018-06-20T14:07:53.585Z,51.84
2018-06-20T14:08:57.467Z,51.62
2018-06-20T14:10:01.264Z,51.97
2018-06-20T14:11:06.923Z,51.73
2018-06-20T14:12:11.442Z,52.41
2018-06-20T14:13:16.083Z,51.71
2018-06-20T14:14:20.403Z,52.07
2018-06-20T14:15:24.281Z,51.52
2018-06-20T14:16:28.143Z,51.49
2018-06-20T14:17:33.551Z,52.14
2018-06-20T14:18:37.394Z,52.09
2018-06-20T14:19:46.006Z,51.42
2018-06-20T14:20:54.617Z,52.14
2018-06-20T14:21:58.502Z,52.16
2018-06-20T14:23:04.003Z,51.96
2018-06-20T14:24:08.794Z,52.17
2018-06-20T14:25:13.870Z,51.61
2018-06-20T14:26:18.804Z,51.19
2018-06-20T14:27:22.751Z,51.17
2018-06-20T14:28:26.620Z,51.36
2018-06-20T14:29:35.276Z,51.90
2018-06-20T14:30:44.566Z,51.89
2018-06-20T14:31:53.200Z,52.18
2018-06-20T14:33:01.984Z,51.61
2018-06-20T14:34:10.723Z,51.82
2018-06-20T14:35:22.953Z,50.86
2018-06-20T14:36:32.444Z,51.19
2018-06-20T14:37:42.091Z,52.07
2018-06-20T14:38:50.765Z,51.75
2018-06-20T14:39:59.471Z,51.91
2018-06-20T14:41:08.052Z,50.96
2018-06-20T14:42:16.794Z,51.08
2018-06-20T14:43:25.512Z,51.44
2018-06-20T14:44:30.148Z,51.50
2018-06-20T14:45:38.845Z,51.27
2018-06-20T14:46:43.480Z,51.06
2018-06-20T14:47:47.345Z,52.02
2018-06-20T14:48:51.158Z,51.08
2018-06-20T14:49:56.677Z,51.28
2018-06-20T14:51:01.675Z,51.08
2018-06-20T14:52:07.236Z,51.59
2018-06-20T14:53:11.052Z,51.63
2018-06-20T14:54:15.672Z,51.80
2018-06-20T14:55:20.594Z,51.72
2018-06-20T14:56:24.921Z,50.92
2018-06-20T14:57:29.565Z,50.93
2018-06-20T14:58:33.831Z,50.83
2018-06-20T14:59:38.659Z,51.69
2018-06-20T15:00:43.168Z,51.15
2018-06-20T15:01:48.045Z,51.37
2018-06-20T15:02:52.014Z,51.13
2018-06-20T15:03:55.943Z,51.68
2018-06-20T15:04:59.836Z,50.74
2018-06-20T15:06:04.419Z,50.73
2018-06-20T15:07:09.327Z,51.92
2018-06-20T15:08:14.839Z,51.03
2018-06-20T15:09:19.350Z,52.02
2018-06-20T15:10:24.153Z,51.61
2018-06-20T15:11:31.579Z,50.79
2018-06-20T15:12:37.684Z,50.96
2018-06-20T15:13:42.713Z,50.57
2018-06-20T15:14:48.571Z,50.57
2018-06-20T15:15:53.616Z,51.34
2018-06-20T15:17:02.421Z,51.30
2018-06-20T15:18:07.217Z,51.31
2018-06-20T15:19:11.708Z,50.96
2018-06-20T15:20:15.941Z,51.63
2018-06-20T15:21:21.609Z,51.79
2018-06-20T15:22:29.627Z,51.51
2018-06-20T15:23:33.653Z,50.78
2018-06-20T15:24:38.249Z,51.82
2018-06-20T15:25:47.167Z,50.97
2018-06-20T15:26:55.917Z,51.66
2018-06-20T15:28:05.287Z,51.09
2018-06-20T15:29:15.117Z,50.60
2018-06-20T15:30:23.710Z,50.61
2018-06-20T15:31:33.266Z,50.89
2018-06-20T15:32:44.042Z,51.34
2018-06-20T15:33:53.276Z,51.33
2018-06-20T15:35:05.736Z,50.95
2018-06-20T15:36:15.549Z,50.79
2018-06-20T15:37:25.419Z,50.84
2018-06-20T15:38:30.038Z,51.62
2018-06-20T15:39:33.953Z,51.65
2018-06-20T15:40:38.232Z,51.71
2018-06-20T15:41:43.576Z,51.13
2018-06-20T15:42:48.213Z,51.79
2018-06-20T15:43:52.623Z,51.46
2018-06-20T15:44:56.557Z,51.50
2018-06-20T15:46:04.879Z,50.89
2018-06-20T15:47:10.641Z,51.78
2018-06-20T15:48:15.267Z,51.53
2018-06-20T15:49:19.163Z,51.47
2018-06-20T15:50:24.836Z,51.56
2018-06-20T15:51:28.975Z,50.82
2018-06-20T15:52:33.658Z,51.76
2018-06-20T15:53:38.658Z,50.91
2018-06-20T15:54:42.805Z,50.63
2018-06-20T15:55:46.797Z,51.42
2018-06-20T15:56:51.203Z,50.78
2018-06-20T15:57:56.043Z,50.40
2018-06-20T15:59:03.570Z,51.29
2018-06-20T16:00:12.658Z,51.50
2018-06-20T16:01:16.733Z,50.42
2018-06-20T16:02:25.339Z,50.67
2018-06-20T16:03:30.564Z,51.23
2018-06-20T16:04:35.310Z,50.77
2018-06-20T16:06:51.122Z,51.59
2018-06-20T16:07:56.618Z,51.11
2018-06-20T16:09:05.381Z,51.32
2018-06-20T16:10:11.826Z,50.43
2018-06-20T16:11:18.359Z,51.98
2018-06-20T16:12:22.698Z,51.49
2018-06-20T16:13:32.077Z,50.40
2018-06-20T16:14:42.094Z,51.05
2018-06-20T16:15:48.595Z,50.59
2018-06-20T16:16:54.987Z,51.62
2018-06-20T16:18:00.098Z,50.73
2018-06-20T16:19:09.341Z,51.25
2018-06-20T16:20:18.100Z,50.91
2018-06-20T16:21:28.619Z,50.96
2018-06-20T16:22:39.599Z,50.42
2018-06-20T16:23:50.443Z,50.47
2018-06-20T16:25:01.584Z,50.34
2018-06-20T16:27:33.224Z,51.13
2018-06-20T16:30:43.346Z,50.97
2018-06-20T16:31:49.666Z,51.23
2018-06-20T16:32:55.704Z,50.49
2018-06-20T16:34:03.414Z,51.30
2018-06-20T16:35:19.666Z,51.29
2018-06-20T16:36:27.752Z,50.39
2018-06-20T16:37:35.587Z,51.37
2018-06-20T16:38:44.929Z,51.29
2018-06-20T16:39:48.882Z,50.52
2018-06-20T16:40:53.804Z,50.78
2018-06-20T16:42:02.659Z,50.58
2018-06-20T16:43:09.270Z,51.03
2018-06-20T16:44:14.472Z,50.26
2018-06-20T16:45:19.791Z,50.56
2018-06-20T16:46:24.527Z,51.07
2018-06-20T16:47:32.559Z,50.58
2018-06-20T16:48:39.262Z,49.83
2018-06-20T16:49:43.634Z,49.53
2018-06-20T16:50:48.384Z,49.60
2018-06-20T16:51:52.278Z,49.95
2018-06-20T16:52:56.246Z,50.32
2018-06-20T16:54:00.660Z,51.30
2018-06-20T16:55:05.346Z,50.29
2018-06-20T16:56:10.535Z,49.86
2018-06-20T16:57:15.813Z,50.22
2018-06-20T16:59:38.526Z,50.08
2018-06-20T17:00:43.267Z,50.18
2018-06-20T17:01:53.973Z,50.34
2018-06-20T17:02:57.906Z,50.51
2018-06-20T17:04:02.174Z,50.32
2018-06-20T17:05:07.265Z,50.68
2018-06-20T17:06:12.530Z,49.80
2018-06-20T17:07:20.317Z,50.85
2018-06-20T17:08:27.375Z,50.02
2018-06-20T17:09:32.337Z,49.95
2018-06-20T17:10:38.593Z,50.04
2018-06-20T17:11:47.778Z,49.97
2018-06-20T17:12:57.248Z,49.92
2018-06-20T17:14:07.953Z,50.18
2018-06-20T17:15:17.224Z,50.12
2018-06-20T17:16:26.427Z,50.11
2018-06-20T17:17:35.157Z,51.18
2018-06-20T17:18:43.887Z,51.34
2018-06-20T17:19:53.170Z,51.17
2018-06-20T17:21:02.026Z,51.18
2018-06-20T17:22:11.044Z,50.44
2018-06-20T17:24:40.804Z,50.53
2018-06-20T17:25:55.830Z,51.40
2018-06-20T17:27:00.567Z,51.48
2018-06-20T17:28:05.421Z,50.46
2018-06-20T17:29:11.337Z,51.43
2018-06-20T17:30:15.841Z,51.27
2018-06-20T17:31:22.488Z,51.50
2018-06-20T17:32:27.472Z,51.41
2018-06-20T17:33:31.409Z,51.67
2018-06-20T17:34:36.037Z,51.26
2018-06-20T17:35:44.502Z,50.76
2018-06-20T17:36:48.466Z,51.44
2018-06-20T17:37:52.385Z,51.34
2018-06-20T17:38:57.281Z,50.49
2018-06-20T17:40:01.202Z,50.67
2018-06-20T17:41:08.600Z,51.42
2018-06-20T17:42:13.381Z,51.45
2018-06-20T17:43:17.229Z,50.58
2018-06-20T17:44:28.598Z,50.83
2018-06-20T17:45:33.249Z,51.04
2018-06-20T17:46:37.928Z,51.57
2018-06-20T17:47:42.408Z,51.30
2018-06-20T17:48:48.465Z,50.85
2018-06-20T17:49:53.132Z,50.47
2018-06-20T17:50:57.817Z,51.25
2018-06-20T17:52:02.012Z,51.37
2018-06-20T17:53:06.461Z,51.65
2018-06-20T17:54:11.043Z,51.69
2018-06-20T17:55:15.391Z,51.37
2018-06-20T17:56:19.248Z,50.94
2018-06-20T17:57:23.083Z,51.66
2018-06-20T17:58:26.911Z,51.73
2018-06-20T17:59:31.557Z,51.45
2018-06-20T18:00:39.328Z,51.17
2018-06-20T18:01:43.816Z,51.55
2018-06-20T18:02:47.662Z,51.67
2018-06-20T18:03:51.573Z,51.56
2018-06-20T18:05:00.287Z,51.63
2018-06-20T18:06:09.071Z,51.73
2018-06-20T18:07:19.245Z,50.69
2018-06-20T18:08:28.003Z,51.40
2018-06-20T18:09:37.474Z,51.11
2018-06-20T18:10:49.313Z,51.68
2018-06-20T18:12:01.212Z,51.62
2018-06-20T18:13:07.612Z,51.62
2018-06-20T18:14:16.632Z,51.23
2018-06-20T18:15:26.407Z,50.87
2018-06-20T18:16:36.155Z,51.17
2018-06-20T18:17:40.610Z,51.26
2018-06-20T18:18:45.939Z,51.69
2018-06-20T18:19:49.767Z,51.02
2018-06-20T18:20:53.971Z,50.97
2018-06-20T18:21:58.671Z,51.19
2018-06-20T18:23:04.603Z,51.76
2018-06-20T18:24:08.450Z,50.70
2018-06-20T18:25:13.072Z,51.67
2018-06-20T18:26:20.441Z,50.66
2018-06-20T18:27:24.629Z,51.46
2018-06-20T18:28:33.773Z,51.54
2018-06-20T18:29:42.555Z,50.63
2018-06-20T18:30:49.708Z,51.51
2018-06-20T18:31:54.511Z,50.42
2018-06-20T18:33:00.783Z,51.46
2018-06-20T18:34:06.074Z,50.78
2018-06-20T18:35:10.476Z,51.30
2018-06-20T18:36:14.662Z,51.19
2018-06-20T18:37:19.478Z,50.60
2018-06-20T18:38:23.596Z,51.58
2018-06-20T18:39:27.951Z,50.87
2018-06-20T18:40:32.076Z,50.84
2018-06-20T18:41:36.050Z,50.98
2018-06-20T18:42:40.726Z,51.30
2018-06-20T18:43:47.910Z,51.40
2018-06-20T18:44:51.833Z,50.89
2018-06-20T18:45:56.426Z,50.57
2018-06-20T18:47:02.366Z,50.91
2018-06-20T18:48:12.580Z,50.54
2018-06-20T18:49:16.442Z,51.65
2018-06-20T18:50:20.357Z,51.33
2018-06-20T18:51:26.665Z,50.74
2018-06-20T18:52:31.938Z,50.69
2018-06-20T18:53:38.738Z,51.40
2018-06-20T18:54:42.873Z,51.34
2018-06-20T18:55:47.414Z,51.39
2018-06-20T18:56:51.311Z,51.55
2018-06-20T18:58:00.100Z,51.23
2018-06-20T18:59:08.824Z,50.81
2018-06-20T19:00:17.554Z,51.68
2018-06-20T19:01:26.283Z,51.71
2018-06-20T19:02:35.047Z,51.89
2018-06-20T19:03:43.792Z,51.33
2018-06-20T19:04:54.548Z,51.75
2018-06-20T19:06:04.396Z,51.76
2018-06-20T19:07:13.697Z,50.87
2018-06-20T19:08:22.467Z,51.77
2018-06-20T19:09:29.657Z,51.59
2018-06-20T19:10:34.670Z,50.93
2018-06-20T19:11:38.897Z,51.50
2018-06-20T19:12:44.301Z,51.56
2018-06-20T19:13:48.683Z,50.66
2018-06-20T19:14:53.389Z,50.92
2018-06-20T19:15:57.267Z,50.72
2018-06-20T19:17:02.604Z,51.62
2018-06-20T19:18:07.454Z,51.64
2018-06-20T19:19:11.301Z,50.77
2018-06-20T19:20:19.708Z,50.64
2018-06-20T19:21:23.587Z,51.34
2018-06-20T19:22:27.750Z,51.40
2018-06-20T19:23:33.072Z,51.85
2018-06-20T19:24:38.307Z,51.49
2018-06-20T19:25:43.248Z,51.41
2018-06-20T19:26:50.715Z,51.54
2018-06-20T19:27:54.541Z,51.68
2018-06-20T19:28:59.452Z,50.82
2018-06-20T19:30:06.645Z,51.13
2018-06-20T19:32:25.385Z,51.53
2018-06-20T19:33:29.867Z,50.75
2018-06-20T19:34:34.761Z,50.60
2018-06-20T19:35:39.686Z,50.77
2018-06-20T19:36:45.908Z,51.06
2018-06-20T19:37:51.102Z,50.84
2018-06-20T19:38:55.304Z,50.70
2018-06-20T19:39:59.221Z,51.66
2018-06-20T19:41:05.068Z,51.66
2018-06-20T19:42:09.719Z,51.30
2018-06-20T19:43:14.568Z,51.83
2018-06-20T19:44:23.162Z,50.96
2018-06-20T19:45:27.338Z,51.58
2018-06-20T19:46:32.179Z,51.47
2018-06-20T19:47:36.025Z,51.60
2018-06-20T19:48:40.742Z,51.71
2018-06-20T19:49:45.289Z,51.82
2018-06-20T19:50:49.311Z,52.12
2018-06-20T19:51:56.553Z,51.98
2018-06-20T19:53:00.434Z,51.72
2018-06-20T19:54:06.843Z,50.78
2018-06-20T19:55:10.662Z,50.63
2018-06-20T19:56:14.780Z,51.56
2018-06-20T19:57:18.686Z,50.60
2018-06-20T19:58:24.542Z,50.70
2018-06-20T19:59:29.363Z,50.87
2018-06-20T20:00:37.537Z,51.82
2018-06-20T20:01:41.398Z,51.20
2018-06-20T20:02:46.365Z,50.94
2018-06-20T20:03:50.379Z,51.69
2018-06-20T20:04:58.390Z,51.72
2018-06-20T20:06:06.671Z,50.79
2018-06-20T20:07:11.477Z,51.26
2018-06-20T20:08:15.288Z,51.00
2018-06-20T20:09:20.062Z,50.93
2018-06-20T20:10:25.284Z,51.56
2018-06-20T20:11:31.990Z,51.56
2018-06-20T20:12:36.798Z,51.60
2018-06-20T20:13:43.128Z,51.52
2018-06-20T20:14:51.618Z,50.90
2018-06-20T20:16:00.088Z,50.91
2018-06-20T20:17:05.410Z,51.20
2018-06-20T20:18:09.279Z,51.73
2018-06-20T20:19:15.285Z,51.30
2018-06-20T20:20:21.090Z,50.60
2018-06-20T20:21:29.998Z,50.84
2018-06-20T20:22:34.505Z,51.72
2018-06-20T20:23:39.619Z,51.18
2018-06-20T20:24:45.640Z,51.56
2018-06-20T20:25:52.089Z,50.77
2018-06-20T20:26:57.648Z,51.70
2018-06-20T20:28:03.055Z,50.48
2018-06-20T20:29:09.514Z,51.36
2018-06-20T20:30:14.695Z,50.69
2018-06-20T20:31:21.123Z,50.78
2018-06-20T20:32:26.807Z,51.65
2018-06-20T20:33:39.133Z,51.21
2018-06-20T20:34:49.685Z,51.41
2018-06-20T20:35:55.230Z,50.57
2018-06-20T20:36:59.710Z,50.47
2018-06-20T20:38:03.818Z,50.52
2018-06-20T20:39:10.446Z,51.23
2018-06-20T20:40:15.484Z,51.00
2018-06-20T20:41:21.103Z,51.35
2018-06-20T20:42:25.659Z,50.10
2018-06-20T20:44:43.979Z,51.30
2018-06-20T20:45:47.814Z,51.30
2018-06-20T20:46:53.349Z,51.27
2018-06-20T20:47:58.510Z,50.53
2018-06-20T20:49:04.407Z,51.27
2018-06-20T20:50:12.107Z,51.16
2018-06-20T20:51:15.981Z,50.55
2018-06-20T20:52:20.668Z,51.26
2018-06-20T20:53:26.308Z,51.31
2018-06-20T20:54:31.166Z,51.37
2018-06-20T20:55:35.440Z,50.58
2018-06-20T20:56:49.295Z,50.64
2018-06-20T20:57:53.377Z,50.97
2018-06-20T20:58:57.422Z,51.35
2018-06-20T21:00:02.919Z,50.89
2018-06-20T21:01:08.629Z,51.28
2018-06-20T21:02:14.420Z,50.75
2018-06-20T21:03:27.514Z,51.58
2018-06-20T21:04:31.320Z,51.19
2018-06-20T21:05:35.469Z,51.66
2018-06-20T21:06:39.350Z,50.79
2018-06-20T21:07:43.787Z,51.06
2018-06-20T21:08:48.690Z,51.09
2018-06-20T21:09:56.078Z,51.89
2018-06-20T21:10:59.885Z,51.33
2018-06-20T21:12:05.192Z,52.11
2018-06-20T21:13:09.610Z,52.03
2018-06-20T21:14:14.518Z,52.05
2018-06-20T21:15:18.493Z,51.09
2018-06-20T21:16:23.478Z,52.01
2018-06-20T21:17:28.654Z,51.75
2018-06-20T21:18:32.713Z,51.86
2018-06-20T21:19:38.490Z,51.83
2018-06-20T21:20:43.944Z,51.19
